createdAt,value
2023-01-06T00:01:43.956Z,7.41
2023-01-06T00:04:13.490Z,7.45
2023-01-06T00:06:42.957Z,7.52
2023-01-06T00:09:13.990Z,7.60
2023-01-06T00:11:43.370Z,7.70
2023-01-06T00:14:12.812Z,7.77
2023-01-06T00:16:42.355Z,7.79
2023-01-06T00:19:13.138Z,7.83
2023-01-06T00:21:43.703Z,7.87
2023-01-06T00:24:14.535Z,7.86
2023-01-06T00:26:44.082Z,7.92
2023-01-06T00:29:13.771Z,7.92
2023-01-06T00:31:43.168Z,7.93
2023-01-06T00:34:13.003Z,7.99
2023-01-06T00:36:43.620Z,7.95
2023-01-06T00:39:15.347Z,8.03
2023-01-06T00:42:02.904Z,8.00
2023-01-06T00:44:33.261Z,7.99
2023-01-06T00:47:03.641Z,7.96
2023-01-06T00:49:33.403Z,7.94
2023-01-06T00:52:03.110Z,7.93
2023-01-06T00:54:33.951Z,7.92
2023-01-06T00:57:04.614Z,7.89
2023-01-06T00:59:34.404Z,7.86
2023-01-06T01:02:05.358Z,7.89
2023-01-06T01:04:36.457Z,7.81
2023-01-06T01:07:05.871Z,7.79
2023-01-06T01:09:36.656Z,7.83
2023-01-06T01:12:12.459Z,7.79
2023-01-06T01:14:47.255Z,7.73
2023-01-06T01:17:20.234Z,7.67
2023-01-06T01:19:54.273Z,7.62
2023-01-06T01:22:24.933Z,7.60
2023-01-06T01:24:55.789Z,7.54
2023-01-06T01:27:25.276Z,7.47
2023-01-06T01:29:55.372Z,7.38
2023-01-06T01:32:25.504Z,7.28
2023-01-06T01:34:54.966Z,7.19
2023-01-06T01:37:24.487Z,7.10
2023-01-06T01:39:55.284Z,7.02
2023-01-06T01:42:24.728Z,6.94
2023-01-06T01:45:02.911Z,6.90
2023-01-06T01:47:49.555Z,6.84
2023-01-06T01:50:32.644Z,6.77
2023-01-06T01:53:08.113Z,6.68
2023-01-06T01:55:41.160Z,6.60
2023-01-06T01:58:21.956Z,6.53
2023-01-06T02:00:53.280Z,6.48
2023-01-06T02:03:25.650Z,6.38
2023-01-06T02:06:00.722Z,6.29
2023-01-06T02:08:41.512Z,6.20
2023-01-06T02:11:13.160Z,6.08
2023-01-06T02:13:47.423Z,5.95
2023-01-06T02:16:34.463Z,5.79
2023-01-06T02:19:21.456Z,5.70
2023-01-06T02:22:20.207Z,5.69
2023-01-06T02:25:39.296Z,5.69
2023-01-06T02:28:42.203Z,5.62
2023-01-06T02:31:45.178Z,5.56
2023-01-06T02:34:29.017Z,5.54
2023-01-06T02:37:06.768Z,5.51
2023-01-06T02:39:50.618Z,5.44
2023-01-06T02:42:30.424Z,5.31
2023-01-06T02:45:10.219Z,5.18
2023-01-06T02:47:57.162Z,5.03
2023-01-06T02:50:39.993Z,4.87
2023-01-06T02:53:22.407Z,4.79
2023-01-06T02:55:55.536Z,4.67
2023-01-06T02:58:31.043Z,4.59
2023-01-06T03:01:09.666Z,4.60
2023-01-06T03:03:47.801Z,4.59
2023-01-06T03:06:26.518Z,4.55
2023-01-06T03:08:59.185Z,4.49
2023-01-06T03:11:31.989Z,4.40
2023-01-06T03:14:11.643Z,4.33
2023-01-06T03:16:41.625Z,4.27
2023-01-06T03:19:12.554Z,4.23
2023-01-06T03:21:45.688Z,4.20
2023-01-06T03:24:16.769Z,4.17
2023-01-06T03:26:51.078Z,4.11
2023-01-06T03:29:22.372Z,4.08
2023-01-06T03:32:03.363Z,4.04
2023-01-06T03:35:10.544Z,4.00
2023-01-06T03:37:53.650Z,3.96
2023-01-06T03:40:34.605Z,3.92
2023-01-06T03:43:16.176Z,3.87
2023-01-06T03:46:00.006Z,3.80
2023-01-06T03:48:56.234Z,3.77
2023-01-06T03:51:47.811Z,3.69
2023-01-06T03:54:38.424Z,3.66
2023-01-06T03:57:14.279Z,3.66
2023-01-06T03:59:50.832Z,3.63
2023-01-06T04:02:22.426Z,3.63
2023-01-06T04:05:13.319Z,3.60
2023-01-06T04:07:46.830Z,3.58
2023-01-06T04:10:21.830Z,3.58
2023-01-06T04:12:52.942Z,3.60
2023-01-06T04:15:29.805Z,3.55
2023-01-06T04:18:01.423Z,3.57
2023-01-06T04:20:34.069Z,3.57
2023-01-06T04:23:17.051Z,3.55
2023-01-06T04:25:47.303Z,3.49
2023-01-06T04:28:20.349Z,3.48
2023-01-06T04:30:52.586Z,3.51
2023-01-06T04:33:22.137Z,3.51
2023-01-06T04:35:53.109Z,3.50
2023-01-06T04:38:25.806Z,3.51
2023-01-06T04:40:56.308Z,3.53
2023-01-06T04:43:25.756Z,3.53
2023-01-06T04:45:55.266Z,3.51
2023-01-06T04:48:24.706Z,3.45
2023-01-06T04:51:02.772Z,3.37
2023-01-06T04:53:35.844Z,3.30
2023-01-06T04:56:08.533Z,3.24
2023-01-06T04:58:38.848Z,3.15
2023-01-06T05:01:12.455Z,3.04
2023-01-06T05:03:42.935Z,2.95
2023-01-06T05:06:13.695Z,2.83
2023-01-06T05:08:46.746Z,2.73
2023-01-06T05:11:20.242Z,2.70
2023-01-06T05:13:50.410Z,2.73
2023-01-06T05:16:25.141Z,2.71
2023-01-06T05:18:56.414Z,2.70
2023-01-06T05:21:30.874Z,2.63
2023-01-06T05:24:02.978Z,2.62
2023-01-06T05:26:32.465Z,2.64
2023-01-06T05:29:01.894Z,2.74
2023-01-06T05:31:31.374Z,2.90
2023-01-06T05:34:00.802Z,3.02
2023-01-06T05:36:30.289Z,3.13
2023-01-06T05:38:59.684Z,3.19
2023-01-06T05:41:30.430Z,3.23
2023-01-06T05:43:59.959Z,3.27
2023-01-06T05:46:29.349Z,3.27
2023-01-06T05:49:00.404Z,3.29
2023-01-06T05:51:30.247Z,3.32
2023-01-06T05:53:59.687Z,3.30
2023-01-06T05:56:30.697Z,3.30
2023-01-06T05:59:00.158Z,3.28
2023-01-06T06:01:33.039Z,3.28
2023-01-06T06:04:02.509Z,3.21
2023-01-06T06:06:32.151Z,3.15
2023-01-06T06:09:02.362Z,3.05
2023-01-06T06:11:33.525Z,2.97
2023-01-06T06:14:02.860Z,2.91
2023-01-06T06:16:32.282Z,2.86
2023-01-06T06:19:01.718Z,2.81
2023-01-06T06:21:32.757Z,2.78
2023-01-06T06:24:02.207Z,2.75
2023-01-06T06:26:33.362Z,2.72
2023-01-06T06:29:02.950Z,2.70
2023-01-06T06:31:32.434Z,2.67
2023-01-06T06:34:03.980Z,2.65
2023-01-06T06:36:33.797Z,2.57
2023-01-06T06:39:04.693Z,2.50
2023-01-06T06:41:35.619Z,2.47
2023-01-06T06:44:05.696Z,2.46
2023-01-06T06:46:35.208Z,2.40
2023-01-06T06:49:04.960Z,2.33
2023-01-06T06:51:35.262Z,2.25
2023-01-06T06:54:06.566Z,2.18
2023-01-06T06:56:37.296Z,2.08
2023-01-06T06:59:07.065Z,2.01
2023-01-06T07:01:36.668Z,1.95
2023-01-06T07:04:06.593Z,1.93
2023-01-06T07:06:36.626Z,1.93
2023-01-06T07:09:06.807Z,1.94
2023-01-06T07:11:37.614Z,1.93
2023-01-06T07:14:07.022Z,1.91
2023-01-06T07:16:36.484Z,1.93
2023-01-06T07:19:05.937Z,2.07
2023-01-06T07:21:35.311Z,2.21
2023-01-06T07:24:05.336Z,2.27
2023-01-06T07:26:34.669Z,2.32
2023-01-06T07:29:05.400Z,2.33
2023-01-06T07:31:34.919Z,2.35
2023-01-06T07:34:04.345Z,2.39
2023-01-06T07:36:33.829Z,2.42
2023-01-06T07:39:03.394Z,2.44
2023-01-06T07:41:33.295Z,2.47
2023-01-06T07:44:05.020Z,2.48
2023-01-06T07:46:34.365Z,2.49
2023-01-06T07:49:03.792Z,2.50
2023-01-06T07:51:33.277Z,2.50
2023-01-06T07:54:03.146Z,2.58
2023-01-06T07:56:32.541Z,2.68
2023-01-06T07:59:07.072Z,2.72
2023-01-06T08:01:36.559Z,2.81
2023-01-06T08:04:06.357Z,2.88
2023-01-06T08:06:35.765Z,3.00
2023-01-06T08:09:05.448Z,2.99
2023-01-06T08:11:35.187Z,3.03
2023-01-06T08:14:11.202Z,3.09
2023-01-06T08:16:42.395Z,3.16
2023-01-06T08:19:11.836Z,3.25
2023-01-06T08:21:41.208Z,3.31
2023-01-06T08:24:10.953Z,3.35
2023-01-06T08:26:40.710Z,3.44
2023-01-06T08:29:11.372Z,3.43
2023-01-06T08:31:40.999Z,3.46
2023-01-06T08:34:11.464Z,3.45
2023-01-06T08:36:41.840Z,3.46
2023-01-06T08:39:12.817Z,3.53
2023-01-06T08:41:43.164Z,3.66
2023-01-06T08:44:14.019Z,3.77
2023-01-06T08:46:43.520Z,3.89
2023-01-06T08:49:13.068Z,3.96
2023-01-06T08:51:42.542Z,4.06
2023-01-06T08:54:12.066Z,4.18
2023-01-06T08:56:43.403Z,4.24
2023-01-06T08:59:17.930Z,4.43
2023-01-06T09:01:47.525Z,4.59
2023-01-06T09:04:17.169Z,4.73
2023-01-06T09:06:47.327Z,4.86
2023-01-06T09:09:16.825Z,4.99
2023-01-06T09:11:47.679Z,5.07
2023-01-06T09:14:18.474Z,5.19
2023-01-06T09:16:48.721Z,5.28
2023-01-06T09:19:20.447Z,5.48
2023-01-06T09:21:49.851Z,5.59
2023-01-06T09:24:19.512Z,5.64
2023-01-06T09:26:49.000Z,5.84
2023-01-06T09:29:21.319Z,5.91
2023-01-06T09:31:50.818Z,6.04
2023-01-06T09:34:20.269Z,6.16
2023-01-06T09:36:49.749Z,6.20
2023-01-06T09:39:19.590Z,6.27
2023-01-06T09:42:11.237Z,6.39
2023-01-06T09:44:49.669Z,6.47
2023-01-06T09:47:26.316Z,6.52
2023-01-06T09:50:02.418Z,6.63
2023-01-06T09:52:39.011Z,6.76
2023-01-06T09:55:16.667Z,6.92
2023-01-06T09:57:52.890Z,7.03
2023-01-06T10:00:36.762Z,7.14
2023-01-06T10:03:07.171Z,7.32
2023-01-06T10:05:55.437Z,7.45
2023-01-06T10:08:39.228Z,7.68
2023-01-06T10:11:16.489Z,7.93
2023-01-06T10:14:10.668Z,8.07
2023-01-06T10:17:05.570Z,8.22
2023-01-06T10:19:59.766Z,8.48
2023-01-06T10:22:43.969Z,8.62
2023-01-06T10:25:21.124Z,8.70
2023-01-06T10:27:54.880Z,8.83
2023-01-06T10:30:43.800Z,8.88
2023-01-06T10:35:58.980Z,8.90
2023-01-06T10:38:35.339Z,8.86
2023-01-06T10:41:20.972Z,8.78
2023-01-06T10:43:50.493Z,8.77
2023-01-06T10:46:19.994Z,8.70
2023-01-06T10:48:52.137Z,8.57
2023-01-06T10:51:38.081Z,8.56
2023-01-06T10:54:13.263Z,8.62
2023-01-06T10:56:51.629Z,8.45
2023-01-06T10:59:21.160Z,8.37
2023-01-06T11:01:54.167Z,8.10
2023-01-06T11:04:27.747Z,8.11
2023-01-06T11:07:01.852Z,8.03
2023-01-06T11:09:34.896Z,7.96
2023-01-06T11:12:14.453Z,7.95
2023-01-06T11:14:44.691Z,7.90
2023-01-06T11:17:17.453Z,7.93
2023-01-06T11:20:06.808Z,8.00
2023-01-06T11:22:40.053Z,8.02
2023-01-06T11:25:30.152Z,7.98
2023-01-06T11:28:20.115Z,8.02
2023-01-06T11:30:54.994Z,8.02
2023-01-06T11:33:28.387Z,8.07
2023-01-06T11:36:03.990Z,8.13
2023-01-06T11:38:41.977Z,8.25
2023-01-06T11:41:13.811Z,8.45
2023-01-06T11:43:47.273Z,8.55
2023-01-06T11:46:25.476Z,8.58
2023-01-06T11:49:03.359Z,8.74
2023-01-06T11:51:49.474Z,8.75
2023-01-06T11:54:33.806Z,8.89
2023-01-06T11:57:29.057Z,8.87
2023-01-06T12:00:39.786Z,8.94
2023-01-06T12:03:22.383Z,9.03
2023-01-06T12:06:00.047Z,9.11
2023-01-06T12:08:39.840Z,9.20
2023-01-06T12:11:17.971Z,9.30
2023-01-06T12:14:08.354Z,9.34
2023-01-06T12:16:49.289Z,9.43
2023-01-06T12:19:28.241Z,9.47
2023-01-06T12:21:58.775Z,9.52
2023-01-06T12:24:33.199Z,9.57
2023-01-06T12:27:06.053Z,9.48
2023-01-06T12:29:36.298Z,9.50
2023-01-06T12:32:16.243Z,9.66
2023-01-06T12:34:50.872Z,9.75
2023-01-06T12:37:32.949Z,9.89
2023-01-06T12:40:14.999Z,10.08
2023-01-06T12:42:54.431Z,10.05
2023-01-06T12:45:36.349Z,9.94
2023-01-06T12:48:19.634Z,9.89
2023-01-06T12:50:55.917Z,9.76
2023-01-06T12:53:30.070Z,9.67
2023-01-06T12:56:27.147Z,9.54
2023-01-06T12:59:13.652Z,9.49
2023-01-06T13:01:52.418Z,9.54
2023-01-06T13:05:10.072Z,9.55
2023-01-06T13:07:51.411Z,9.60
2023-01-06T13:10:32.662Z,9.62
2023-01-06T13:13:35.722Z,9.74
2023-01-06T13:16:18.831Z,9.75
2023-01-06T13:19:07.111Z,9.84
2023-01-06T13:21:38.179Z,9.83
2023-01-06T13:24:34.491Z,9.84
2023-01-06T13:28:01.011Z,9.77
2023-01-06T13:31:21.158Z,9.60
2023-01-06T13:34:28.978Z,9.55
2023-01-06T13:37:30.068Z,9.45
2023-01-06T13:40:04.414Z,9.38
2023-01-06T13:42:41.496Z,9.30
2023-01-06T13:45:20.538Z,9.22
2023-01-06T13:47:52.338Z,9.14
2023-01-06T13:50:23.105Z,9.13
2023-01-06T13:52:53.467Z,9.14
2023-01-06T13:55:30.265Z,9.05
2023-01-06T13:58:38.786Z,9.03
2023-01-06T14:01:13.848Z,9.07
2023-01-06T14:03:45.482Z,9.00
2023-01-06T14:06:46.960Z,8.93
2023-01-06T14:09:19.883Z,8.89
2023-01-06T14:11:49.797Z,8.79
2023-01-06T14:14:28.277Z,8.75
2023-01-06T14:16:59.104Z,8.79
2023-01-06T14:19:36.177Z,8.78
2023-01-06T14:22:19.191Z,8.79
2023-01-06T14:24:53.343Z,8.82
2023-01-06T14:28:27.358Z,8.80
2023-01-06T14:31:48.951Z,8.89
2023-01-06T14:34:20.362Z,8.88
2023-01-06T14:36:53.161Z,8.95
2023-01-06T14:39:27.834Z,8.94
2023-01-06T14:42:06.216Z,8.89
2023-01-06T14:44:46.547Z,8.87
2023-01-06T14:47:28.021Z,8.85
2023-01-06T14:50:03.736Z,8.80
2023-01-06T14:52:39.624Z,8.84
2023-01-06T14:55:18.127Z,8.87
2023-01-06T14:57:49.224Z,8.82
2023-01-06T15:00:24.955Z,8.77
2023-01-06T15:03:00.252Z,8.78
2023-01-06T15:05:32.884Z,8.73
2023-01-06T15:08:08.242Z,8.69
2023-01-06T15:10:41.665Z,8.71
2023-01-06T15:13:24.427Z,8.66
2023-01-06T15:15:56.103Z,8.67
2023-01-06T15:18:26.757Z,8.57
2023-01-06T15:20:57.299Z,8.69
2023-01-06T15:23:28.512Z,8.68
2023-01-06T15:25:58.271Z,8.61
2023-01-06T15:28:30.963Z,8.54
2023-01-06T15:31:03.393Z,8.58
2023-01-06T15:33:40.473Z,8.54
2023-01-06T15:36:13.419Z,8.59
2023-01-06T15:38:44.775Z,8.54
2023-01-06T15:41:32.523Z,8.54
2023-01-06T15:44:23.707Z,8.47
2023-01-06T15:46:59.118Z,8.40
2023-01-06T15:49:32.918Z,8.42
2023-01-06T15:52:07.924Z,8.36
2023-01-06T15:54:45.031Z,8.32
2023-01-06T15:57:17.220Z,8.34
2023-01-06T15:59:57.272Z,8.32
2023-01-06T16:02:30.941Z,8.33
2023-01-06T16:05:02.230Z,8.31
2023-01-06T16:07:41.832Z,8.31
2023-01-06T16:10:36.830Z,8.26
2023-01-06T16:13:29.063Z,8.21
2023-01-06T16:16:03.450Z,8.15
2023-01-06T16:18:36.415Z,8.24
2023-01-06T16:21:23.089Z,8.24
2023-01-06T16:23:55.717Z,8.28
2023-01-06T16:26:30.657Z,8.17
2023-01-06T16:29:03.619Z,8.13
2023-01-06T16:31:36.300Z,8.07
2023-01-06T16:34:28.680Z,8.09
2023-01-06T16:37:00.610Z,8.11
2023-01-06T16:39:30.102Z,8.18
2023-01-06T16:42:46.277Z,8.10
2023-01-06T16:45:27.417Z,8.03
2023-01-06T16:47:57.621Z,8.11
2023-01-06T16:50:34.220Z,8.11
2023-01-06T16:53:14.102Z,8.10
2023-01-06T16:55:44.332Z,8.15
2023-01-06T16:58:20.699Z,8.11
2023-01-06T17:00:54.208Z,8.16
2023-01-06T17:03:28.597Z,8.12
2023-01-06T17:05:58.231Z,8.05
2023-01-06T17:08:31.896Z,8.02
2023-01-06T17:11:07.908Z,8.08
2023-01-06T17:13:40.666Z,8.09
2023-01-06T17:16:17.825Z,8.07
2023-01-06T17:18:53.850Z,8.11
2023-01-06T17:21:28.709Z,8.11
2023-01-06T17:24:11.790Z,8.07
2023-01-06T17:26:49.610Z,8.08
2023-01-06T17:29:22.260Z,8.06
2023-01-06T17:31:57.421Z,8.03
2023-01-06T17:34:33.659Z,8.00
2023-01-06T17:37:12.297Z,7.98
2023-01-06T17:39:44.915Z,7.91
2023-01-06T17:42:32.502Z,7.91
2023-01-06T17:45:13.864Z,7.94
2023-01-06T17:47:47.963Z,7.93
2023-01-06T17:50:30.343Z,7.92
2023-01-06T17:53:32.654Z,7.98
2023-01-06T17:56:05.519Z,7.95
2023-01-06T17:58:40.230Z,7.93
2023-01-06T18:01:17.942Z,7.91
2023-01-06T18:03:48.878Z,7.86
2023-01-06T18:06:30.536Z,7.84
2023-01-06T18:09:13.554Z,7.73
2023-01-06T18:11:47.681Z,7.71
2023-01-06T18:14:30.488Z,7.68
2023-01-06T18:17:22.856Z,7.69
2023-01-06T18:19:53.082Z,7.66
2023-01-06T18:22:25.207Z,7.74
2023-01-06T18:24:59.696Z,7.77
2023-01-06T18:27:33.352Z,7.75
2023-01-06T18:30:22.054Z,7.70
2023-01-06T18:32:53.384Z,7.74
2023-01-06T18:35:27.838Z,7.76
2023-01-06T18:38:03.509Z,7.76
2023-01-06T18:40:33.186Z,7.71
2023-01-06T18:43:25.969Z,7.70
2023-01-06T18:45:59.918Z,7.71
2023-01-06T18:48:33.957Z,7.69
2023-01-06T18:51:08.014Z,7.63
2023-01-06T18:53:43.163Z,7.61
2023-01-06T18:56:18.803Z,7.64
2023-01-06T18:58:52.445Z,7.61
2023-01-06T19:01:27.759Z,7.57
2023-01-06T19:04:07.109Z,7.57
2023-01-06T19:06:43.405Z,7.59
2023-01-06T19:09:28.507Z,7.56
2023-01-06T19:12:18.194Z,7.52
2023-01-06T19:14:52.019Z,7.52
2023-01-06T19:17:30.032Z,7.50
2023-01-06T19:20:14.752Z,7.46
2023-01-06T19:22:45.253Z,7.42
2023-01-06T19:25:30.067Z,7.44
2023-01-06T19:28:01.368Z,7.46
2023-01-06T19:30:44.288Z,7.42
2023-01-06T19:33:38.646Z,7.39
2023-01-06T19:36:56.877Z,7.36
2023-01-06T19:39:31.649Z,7.34
2023-01-06T19:42:18.477Z,7.39
2023-01-06T19:44:53.845Z,7.37
2023-01-06T19:47:28.389Z,7.36
2023-01-06T19:50:14.824Z,7.31
2023-01-06T19:52:45.725Z,7.30
2023-01-06T19:55:29.138Z,7.36
2023-01-06T19:58:00.627Z,7.31
2023-01-06T20:00:38.796Z,7.37
2023-01-06T20:03:29.464Z,7.27
2023-01-06T20:05:59.102Z,7.27
2023-01-06T20:08:29.950Z,7.23
2023-01-06T20:10:59.663Z,7.19
2023-01-06T20:13:29.190Z,7.17
2023-01-06T20:15:58.673Z,7.19
2023-01-06T20:18:28.064Z,7.20
2023-01-06T20:20:57.519Z,7.17
2023-01-06T20:23:27.011Z,7.16
2023-01-06T20:25:57.844Z,7.14
2023-01-06T20:28:27.619Z,7.16
2023-01-06T20:30:57.115Z,7.17
2023-01-06T20:33:26.644Z,7.19
2023-01-06T20:35:56.038Z,7.19
2023-01-06T20:38:25.600Z,7.15
2023-01-06T20:40:54.984Z,7.15
2023-01-06T20:43:25.761Z,7.17
2023-01-06T20:45:55.229Z,7.16
2023-01-06T20:48:25.366Z,7.26
2023-01-06T20:50:54.884Z,7.23
2023-01-06T20:53:24.453Z,7.22
2023-01-06T20:55:57.746Z,7.21
2023-01-06T20:58:28.504Z,7.16
2023-01-06T21:00:57.933Z,7.16
2023-01-06T21:03:27.384Z,7.13
2023-01-06T21:05:56.866Z,7.11
2023-01-06T21:08:26.273Z,7.14
2023-01-06T21:10:55.729Z,7.19
2023-01-06T21:13:25.374Z,7.17
2023-01-06T21:15:56.138Z,7.13
2023-01-06T21:18:25.652Z,7.13
2023-01-06T21:20:55.031Z,7.20
2023-01-06T21:23:24.581Z,7.19
2023-01-06T21:25:54.169Z,7.19
2023-01-06T21:28:23.623Z,7.21
2023-01-06T21:30:54.284Z,7.20
2023-01-06T21:33:26.467Z,7.17
2023-01-06T21:35:59.361Z,7.15
2023-01-06T21:38:28.847Z,7.17
2023-01-06T21:41:24.772Z,7.12
2023-01-06T21:43:54.486Z,7.12
2023-01-06T21:46:27.052Z,7.07
2023-01-06T21:48:59.098Z,7.03
2023-01-06T21:51:28.805Z,7.13
2023-01-06T21:53:58.247Z,7.09
2023-01-06T21:56:27.807Z,7.02
2023-01-06T21:58:58.359Z,7.07
2023-01-06T22:01:28.055Z,7.06
2023-01-06T22:03:58.895Z,7.08
2023-01-06T22:06:29.876Z,7.09
2023-01-06T22:09:05.116Z,7.07
2023-01-06T22:11:36.869Z,7.02
2023-01-06T22:14:07.008Z,7.04
2023-01-06T22:16:38.575Z,7.02
2023-01-06T22:19:13.564Z,6.97
2023-01-06T22:21:45.316Z,6.97
2023-01-06T22:24:17.438Z,6.95
2023-01-06T22:26:46.839Z,6.91
2023-01-06T22:29:16.173Z,6.87
2023-01-06T22:31:45.612Z,6.84
2023-01-06T22:34:17.371Z,6.88
2023-01-06T22:36:46.953Z,6.84
2023-01-06T22:39:16.298Z,6.90
2023-01-06T22:41:47.239Z,6.91
2023-01-06T22:44:16.625Z,6.99
2023-01-06T22:46:46.071Z,7.01
2023-01-06T22:49:16.805Z,6.97
2023-01-06T22:51:46.207Z,7.00
2023-01-06T22:54:16.021Z,7.05
2023-01-06T22:56:45.398Z,7.00
2023-01-06T22:59:14.895Z,6.94
2023-01-06T23:01:44.407Z,6.97
2023-01-06T23:04:14.842Z,6.98
2023-01-06T23:06:46.241Z,6.93
2023-01-06T23:09:15.797Z,6.91
2023-01-06T23:11:45.252Z,6.84
2023-01-06T23:14:14.968Z,6.83
2023-01-06T23:16:45.647Z,6.78
2023-01-06T23:19:17.658Z,6.75
2023-01-06T23:21:48.519Z,6.74
2023-01-06T23:24:18.067Z,6.72
2023-01-06T23:26:48.711Z,6.71
2023-01-06T23:29:18.059Z,6.69
2023-01-06T23:31:47.868Z,6.67
2023-01-06T23:34:19.730Z,6.65
2023-01-06T23:36:50.629Z,6.66
2023-01-06T23:39:20.372Z,6.65
2023-01-06T23:41:50.076Z,6.64
2023-01-06T23:44:21.015Z,6.63
2023-01-06T23:46:50.589Z,6.63
2023-01-06T23:49:20.312Z,6.64
2023-01-06T23:51:51.086Z,6.64
2023-01-06T23:54:20.549Z,6.65
2023-01-06T23:56:50.093Z,6.64
2023-01-06T23:59:19.767Z,6.66
